Time;durP1;ratioP1;P1;durP2;ratioP2;P2;SDS_P1;SDS_P2;PMS_P1;PMS_P2;Temp;Humidity;BMP_temperature;BMP_pressure;BME280_temperature;BME280_humidity;BME280_pressure;Samples;Min_cycle;Max_cycle;Signal;HPM_P1;HPM_P2
2022/08/13 00:04:21;;;;;;;1.77;0.60;;;;;;;18.27;100.00;98554.47;15274028;19;20007;-61
2022/08/13 00:09:34;;;;;;;1.73;0.70;;;;;;;18.25;100.00;98554.66;15281864;19;20539;-65
2022/08/13 00:14:48;;;;;;;4.50;0.63;;;;;;;18.26;100.00;98555.53;15274444;19;20010;-62
2022/08/13 00:19:54;;;;;;;3.45;0.85;;;;;;;18.24;100.00;98560.34;15273269;19;20108;-65
2022/08/13 00:25:00;;;;;;;1.67;0.70;;;;;;;18.22;100.00;98555.09;15274412;19;20018;-63
2022/08/13 00:30:16;;;;;;;1.85;0.80;;;;;;;18.14;100.00;98550.69;15276406;19;20014;-62
2022/08/13 00:35:32;;;;;;;3.28;0.90;;;;;;;18.07;100.00;98549.81;15273831;19;20019;-63
2022/08/13 00:40:45;;;;;;;2.88;0.47;;;;;;;17.99;100.00;98545.38;15280491;19;20025;-65
2022/08/13 00:46:04;;;;;;;2.88;0.55;;;;;;;17.96;100.00;98555.84;15279700;19;20016;-65
2022/08/13 00:51:10;;;;;;;1.27;0.60;;;;;;;17.90;100.00;98538.44;15275131;19;20014;-65
2022/08/13 00:56:38;;;;;;;3.15;0.60;;;;;;;17.83;100.00;98538.41;15276226;19;20345;-61
2022/08/13 01:01:49;;;;;;;1.02;0.60;;;;;;;17.79;100.00;98537.16;15281380;19;20010;-61
2022/08/13 01:06:54;;;;;;;1.77;0.70;;;;;;;17.72;100.00;98530.81;15277370;19;20348;-64
2022/08/13 01:12:02;;;;;;;1.23;0.60;;;;;;;17.62;100.00;98531.25;15270701;19;20014;-62
2022/08/13 01:17:12;;;;;;;1.17;0.60;;;;;;;17.52;100.00;98530.78;15275674;19;20022;-65
2022/08/13 01:22:22;;;;;;;2.90;0.70;;;;;;;17.46;100.00;98524.25;15266416;19;20015;-61
2022/08/13 01:27:39;;;;;;;2.08;0.43;;;;;;;17.39;100.00;98523.38;15274876;19;20010;-65
2022/08/13 01:32:47;;;;;;;3.38;0.60;;;;;;;17.33;100.00;98516.03;15278702;19;20032;-65
2022/08/13 01:38:02;;;;;;;2.53;0.65;;;;;;;17.25;100.00;98517.88;15278422;19;20014;-64
2022/08/13 01:43:10;;;;;;;2.13;0.77;;;;;;;17.18;100.00;98514.28;15277207;19;20666;-64
2022/08/13 01:54:06;;;;;;;4.35;0.70;;;;;;;17.07;100.00;98499.34;15271822;19;20014;-65
2022/08/13 01:59:32;;;;;;;0.95;0.60;;;;;;;17.00;100.00;98500.34;15277699;19;20018;-66
2022/08/13 02:04:58;;;;;;;0.85;0.50;;;;;;;16.92;100.00;98496.75;15271512;19;20022;-64
2022/08/13 02:10:08;;;;;;;4.38;0.80;;;;;;;16.87;100.00;98496.50;15277146;19;20090;-62
2022/08/13 02:15:18;;;;;;;2.22;0.70;;;;;;;16.78;100.00;98504.00;15268928;19;20389;-64
2022/08/13 02:20:44;;;;;;;2.72;0.60;;;;;;;16.73;100.00;98505.63;15272658;19;20029;-64
2022/08/13 02:25:53;;;;;;;0.75;0.52;;;;;;;16.67;100.00;98500.97;15270145;19;20015;-62
2022/08/13 02:31:02;;;;;;;2.22;0.70;;;;;;;16.57;100.00;98507.59;15269732;19;20035;-63
2022/08/13 02:36:10;;;;;;;2.78;0.70;;;;;;;16.51;100.00;98508.41;15261776;19;20094;-63
2022/08/13 02:46:35;;;;;;;4.00;0.70;;;;;;;16.37;100.00;98501.19;15270686;19;20018;-64
2022/08/13 02:51:42;;;;;;;5.28;0.77;;;;;;;16.28;100.00;98504.03;15268538;19;20014;-64
2022/08/13 02:57:10;;;;;;;2.28;0.70;;;;;;;16.14;100.00;98504.97;15266062;19;20039;-63
2022/08/13 03:02:15;;;;;;;1.13;0.60;;;;;;;16.11;100.00;98502.63;15263063;19;20460;-63
2022/08/13 03:07:25;;;;;;;3.90;0.70;;;;;;;16.08;100.00;98505.72;15268165;19;20676;-64
2022/08/13 03:12:37;;;;;;;3.38;0.70;;;;;;;15.96;100.00;98505.41;15266258;19;20046;-63
2022/08/13 03:17:44;;;;;;;1.85;0.63;;;;;;;15.88;100.00;98506.38;15259528;19;20102;-63
2022/08/13 03:23:01;;;;;;;3.17;0.80;;;;;;;15.81;100.00;98500.03;15265012;19;20341;-63
2022/08/13 03:28:09;;;;;;;3.03;0.70;;;;;;;15.76;100.00;98510.63;15266239;19;20392;-63
2022/08/13 03:33:17;;;;;;;4.00;0.80;;;;;;;15.67;100.00;98510.75;15259573;19;20010;-63
2022/08/13 03:38:24;;;;;;;0.82;0.60;;;;;;;15.61;100.00;98516.94;15258421;19;20579;-63
2022/08/13 03:49:34;;;;;;;2.15;0.75;;;;;;;15.40;100.00;98498.75;15260039;19;20015;-64
2022/08/13 03:54:39;;;;;;;2.60;0.63;;;;;;;15.34;100.00;98505.78;15263290;19;20017;-65
2022/08/13 03:59:44;;;;;;;3.85;0.80;;;;;;;15.28;100.00;98505.69;15260847;19;20039;-65
2022/08/13 04:04:55;;;;;;;3.08;0.88;;;;;;;15.23;100.00;98503.50;15252873;19;20035;-62
2022/08/13 04:10:00;;;;;;;1.13;0.63;;;;;;;15.16;100.00;98498.03;15260416;19;20440;-62
2022/08/13 04:15:09;;;;;;;1.45;0.70;;;;;;;15.09;100.00;98506.09;15256531;19;20010;-62
2022/08/13 04:20:18;;;;;;;1.13;0.70;;;;;;;15.07;100.00;98508.13;15264031;19;20014;-64
2022/08/13 04:25:24;;;;;;;1.42;0.65;;;;;;;15.02;100.00;98504.31;15259893;19;20018;-62
2022/08/13 04:30:44;;;;;;;2.08;0.70;;;;;;;15.01;100.00;98505.34;15260476;19;20014;-63
2022/08/13 04:35:52;;;;;;;1.40;0.60;;;;;;;14.99;100.00;98516.38;15254319;19;20035;-58
2022/08/13 04:41:02;;;;;;;3.10;0.70;;;;;;;14.98;100.00;98516.56;15264502;19;20479;-61
2022/08/13 04:46:07;;;;;;;2.53;0.70;;;;;;;14.96;100.00;98516.75;15265592;19;20018;-64
2022/08/13 04:51:17;;;;;;;2.55;1.20;;;;;;;14.97;100.00;98525.72;15261103;19;20021;-64
2022/08/13 04:56:24;;;;;;;2.72;1.00;;;;;;;14.84;100.00;98529.91;15252236;19;20014;-61
2022/08/13 05:01:29;;;;;;;1.35;0.70;;;;;;;14.98;100.00;98530.97;15258108;19;20345;-62
2022/08/13 05:06:57;;;;;;;1.77;0.80;;;;;;;15.05;100.00;98528.34;15256323;19;20049;-64
2022/08/13 05:12:02;;;;;;;4.78;0.80;;;;;;;15.10;100.00;98521.34;15251742;19;20014;-64
2022/08/13 05:17:10;;;;;;;1.15;0.77;;;;;;;15.15;100.00;98541.63;15253493;19;20014;-63
2022/08/13 05:22:22;;;;;;;1.25;0.70;;;;;;;15.19;100.00;98526.66;15256385;19;20018;-61
2022/08/13 05:27:33;;;;;;;0.93;0.77;;;;;;;15.25;100.00;98523.19;15254371;19;20778;-61
2022/08/13 05:32:49;;;;;;;1.50;0.90;;;;;;;15.30;100.00;98531.59;15256995;19;20023;-62
2022/08/13 05:37:57;;;;;;;2.55;0.90;;;;;;;15.37;100.00;98535.22;15252846;19;20017;-63
2022/08/13 05:43:23;;;;;;;3.22;0.93;;;;;;;15.41;100.00;98539.25;15249170;19;20014;-65
2022/08/13 05:48:29;;;;;;;3.38;0.90;;;;;;;15.54;100.00;98529.59;15255902;19;20034;-63
2022/08/13 05:53:38;;;;;;;1.00;0.80;;;;;;;15.65;100.00;98530.97;15252780;19;20872;-62
2022/08/13 05:59:03;;;;;;;2.30;1.00;;;;;;;15.78;100.00;98530.28;15250280;19;20022;-63
2022/08/13 06:04:11;;;;;;;2.60;0.93;;;;;;;15.91;100.00;98533.19;15252317;19;20026;-63
2022/08/13 06:09:39;;;;;;;1.55;0.98;;;;;;;16.07;100.00;98523.91;15250272;19;20386;-63
2022/08/13 06:14:45;;;;;;;3.08;0.93;;;;;;;16.23;100.00;98522.81;15254256;19;20043;-64
2022/08/13 06:20:04;;;;;;;1.50;0.95;;;;;;;16.39;100.00;98527.13;15262674;19;20011;-63
2022/08/13 06:25:12;;;;;;;1.83;0.95;;;;;;;16.66;100.00;98518.31;15264627;19;20026;-63
2022/08/13 06:30:19;;;;;;;1.45;0.70;;;;;;;16.83;100.00;98505.25;15269519;19;20449;-63
2022/08/13 06:35:34;;;;;;;1.77;0.93;;;;;;;17.08;100.00;98502.94;15263255;19;20047;-64
2022/08/13 06:40:53;;;;;;;3.63;1.00;;;;;;;17.23;100.00;98505.50;15269417;19;20010;-62
2022/08/13 06:45:59;;;;;;;1.48;0.80;;;;;;;17.51;100.00;98512.75;15265150;19;20022;-63
2022/08/13 06:51:06;;;;;;;4.60;0.90;;;;;;;17.66;100.00;98510.69;15268550;19;20361;-61
2022/08/13 06:56:15;;;;;;;1.77;0.80;;;;;;;17.80;100.00;98519.75;15265655;19;20027;-63
2022/08/13 07:01:39;;;;;;;4.13;0.90;;;;;;;18.00;100.00;98521.72;15264231;19;20611;-64
2022/08/13 07:07:04;;;;;;;2.67;0.88;;;;;;;18.17;100.00;98516.69;15266472;19;20400;-62
2022/08/13 07:12:13;;;;;;;2.78;0.90;;;;;;;18.35;100.00;98516.09;15265521;19;20018;-63
2022/08/13 07:17:20;;;;;;;2.42;0.85;;;;;;;18.56;100.00;98522.38;15257247;19;20260;-63
2022/08/13 07:22:27;;;;;;;4.68;0.90;;;;;;;18.78;100.00;98510.16;15263727;19;20562;-63
2022/08/13 07:27:55;;;;;;;1.55;0.70;;;;;;;19.08;100.00;98509.72;15263386;19;20068;-62
2022/08/13 07:33:01;;;;;;;2.50;0.82;;;;;;;19.34;100.00;98516.16;15260278;19;20010;-63
2022/08/13 07:38:07;;;;;;;4.38;0.80;;;;;;;19.65;100.00;98513.69;15260268;19;20476;-63
2022/08/13 07:43:26;;;;;;;2.88;0.77;;;;;;;19.87;100.00;98514.22;15260805;19;20958;-64
2022/08/13 07:48:46;;;;;;;2.88;0.70;;;;;;;20.19;100.00;98516.13;15257562;19;20014;-63
2022/08/13 07:53:56;;;;;;;3.72;0.77;;;;;;;20.54;100.00;98519.22;15259946;19;20082;-61
2022/08/13 07:59:07;;;;;;;1.23;0.70;;;;;;;20.99;100.00;98514.63;15259633;19;20035;-64
2022/08/13 08:04:14;;;;;;;;;;;;;;;21.39;100.00;98515.00;15261307;19;20018;-63
2022/08/13 08:09:35;;;;;;;1.60;0.57;;;;;;;21.66;100.00;98519.34;15260486;19;19910;-63
2022/08/13 08:14:48;;;;;;;1.27;0.70;;;;;;;21.93;100.00;98518.97;15261233;19;20477;-63
2022/08/13 08:19:59;;;;;;;2.45;0.80;;;;;;;22.15;100.00;98517.38;15259904;19;20949;-64
2022/08/13 08:25:24;;;;;;;1.63;0.70;;;;;;;22.54;100.00;98524.38;15256957;19;20120;-63
2022/08/13 08:30:33;;;;;;;0.90;0.60;;;;;;;22.78;100.00;98515.09;15259728;19;20035;-65
2022/08/13 08:35:38;;;;;;;1.95;0.70;;;;;;;23.05;95.95;98511.84;15255190;19;20014;-63
2022/08/13 08:46:25;;;;;;;8.00;0.88;;;;;;;23.57;89.51;98515.72;15256742;19;20017;-63
2022/08/13 08:51:30;;;;;;;1.50;0.60;;;;;;;23.82;85.45;98518.13;15258545;19;20010;-64
2022/08/13 08:56:39;;;;;;;0.77;0.60;;;;;;;23.91;84.71;98515.81;15250884;19;20025;-63
2022/08/13 09:02:17;;;;;;;3.25;0.60;;;;;;;24.15;81.31;98516.56;15255821;19;20046;-64
2022/08/13 09:07:23;;;;;;;;;;;;;;;24.34;76.12;98515.50;15259232;19;20010;-62
2022/08/13 09:12:29;;;;;;;2.88;0.77;;;;;;;24.37;79.39;98506.75;15258144;19;19947;-63
2022/08/13 09:17:39;;;;;;;1.30;0.60;;;;;;;24.58;77.63;98507.91;15255890;19;20023;-63
2022/08/13 09:22:47;;;;;;;2.03;0.60;;;;;;;24.68;75.12;98497.06;15257308;19;20017;-63
2022/08/13 09:28:00;;;;;;;1.40;0.60;;;;;;;24.85;76.34;98497.06;15253874;19;20093;-64
2022/08/13 09:33:26;;;;;;;2.15;0.60;;;;;;;25.07;72.84;98488.00;15259783;19;20375;-65
2022/08/13 09:38:53;;;;;;;3.05;0.80;;;;;;;25.22;71.50;98488.22;15263063;19;20018;-60
2022/08/13 09:49:46;;;;;;;2.03;0.60;;;;;;;25.42;66.27;98480.47;15285754;19;20386;-80
2022/08/13 09:55:09;;;;;;;1.98;0.70;;;;;;;25.50;67.23;98480.84;15363681;19;20079;-80
2022/08/13 10:00:27;;;;;;;1.73;0.70;;;;;;;25.56;67.22;98480.91;15291458;19;20020;-79
2022/08/13 10:05:36;;;;;;;1.70;0.70;;;;;;;25.76;68.76;98483.91;15280049;19;20061;-80
2022/08/13 10:10:53;;;;;;;1.10;0.68;;;;;;;25.88;66.00;98469.94;15293789;19;20341;-83
2022/08/13 10:15:59;;;;;;;3.25;0.77;;;;;;;26.20;63.82;98471.09;15282030;19;20042;-81
2022/08/13 10:21:07;;;;;;;1.70;0.77;;;;;;;26.55;61.38;98461.41;15291574;19;20024;-81
2022/08/13 10:26:23;;;;;;;2.88;0.70;;;;;;;26.65;59.75;98466.19;15283239;19;20019;-80
2022/08/13 10:31:32;;;;;;;1.80;0.68;;;;;;;26.68;59.80;98476.72;15285350;19;20031;-79
2022/08/13 10:36:57;;;;;;;1.23;0.70;;;;;;;26.96;59.83;98470.00;15292110;19;20018;-81
2022/08/13 10:42:03;;;;;;;2.10;0.70;;;;;;;27.06;57.84;98472.81;15279828;19;20017;-81
2022/08/13 10:47:08;;;;;;;1.83;0.77;;;;;;;27.01;57.31;98460.91;15282470;19;20006;-80
2022/08/13 10:52:15;;;;;;;1.40;0.93;;;;;;;26.98;58.49;98458.69;15282396;19;20369;-82
2022/08/13 10:57:25;;;;;;;3.35;0.70;;;;;;;26.99;59.85;98466.69;15301596;19;20026;-81
2022/08/13 11:02:37;;;;;;;4.65;0.70;;;;;;;27.14;57.94;98459.59;15290202;19;20360;-81
2022/08/13 11:07:47;;;;;;;1.25;0.70;;;;;;;27.18;57.16;98463.47;15304718;19;20825;-80
2022/08/13 11:12:54;;;;;;;1.10;0.50;;;;;;;27.07;58.09;98460.66;15305993;19;20039;-80
2022/08/13 11:18:18;;;;;;;1.30;0.80;;;;;;;26.96;60.52;98467.25;15286633;19;20010;-81
2022/08/13 11:23:26;;;;;;;1.02;0.85;;;;;;;26.82;64.77;98455.00;15278798;19;20039;-81
2022/08/13 11:28:31;;;;;;;1.35;0.80;;;;;;;26.68;66.67;98452.66;15282568;19;20026;-81
2022/08/13 11:33:37;;;;;;;1.58;0.80;;;;;;;26.78;68.49;98454.72;15278553;19;20079;-78
2022/08/13 11:39:06;;;;;;;2.83;1.00;;;;;;;26.75;69.79;98453.25;15272156;19;20082;-79
2022/08/13 11:44:11;;;;;;;2.73;1.00;;;;;;;26.91;70.30;98442.31;15280453;19;20028;-77
2022/08/13 11:49:23;;;;;;;1.40;1.00;;;;;;;27.21;69.44;98429.75;15281156;19;20035;-82
2022/08/13 11:54:32;;;;;;;3.88;1.00;;;;;;;27.38;66.83;98435.06;15278493;19;20014;-83
2022/08/13 11:59:41;;;;;;;3.78;0.90;;;;;;;27.34;68.93;98437.53;15277537;19;20640;-83
2022/08/13 12:04:57;;;;;;;3.13;0.80;;;;;;;27.56;67.03;98427.41;15276446;19;20070;-86
2022/08/13 12:10:06;;;;;;;1.33;0.90;;;;;;;27.41;68.39;98440.03;15276079;19;20043;-81
2022/08/13 12:15:30;;;;;;;3.80;1.00;;;;;;;27.17;70.18;98434.16;15266927;19;21002;-83
2022/08/13 12:20:55;;;;;;;4.53;1.10;;;;;;;27.19;72.96;98415.38;15278787;19;20011;-81
2022/08/13 12:26:02;;;;;;;3.05;0.93;;;;;;;27.29;73.81;98423.69;15295856;19;20013;-82
2022/08/13 12:31:09;;;;;;;1.48;0.98;;;;;;;27.16;72.63;98418.66;15296836;19;20011;-83
2022/08/13 12:36:17;;;;;;;1.27;0.90;;;;;;;26.92;73.70;98410.81;14787934;19;10000849;-80
2022/08/13 12:41:25;;;;;;;1.65;1.00;;;;;;;26.89;76.16;98405.81;15288300;19;20106;-81
2022/08/13 12:46:45;;;;;;;1.27;0.90;;;;;;;26.80;78.13;98400.00;15293849;19;20369;-82
2022/08/13 12:51:50;;;;;;;3.10;1.20;;;;;;;26.72;82.13;98400.44;15292765;19;20042;-81
2022/08/13 12:57:01;;;;;;;1.58;1.00;;;;;;;26.79;82.07;98405.78;15291686;19;20010;-81
2022/08/13 13:02:09;;;;;;;1.00;0.95;;;;;;;26.77;83.97;98392.22;15298949;19;20006;-80
2022/08/13 13:07:14;;;;;;;1.48;1.10;;;;;;;26.57;86.22;98401.19;15291265;19;20094;-82
2022/08/13 13:12:21;;;;;;;1.20;1.10;;;;;;;26.51;87.07;98385.72;15284382;19;20109;-80
2022/08/13 13:17:26;;;;;;;2.28;1.00;;;;;;;26.73;88.18;98386.38;15292787;19;20010;-82
2022/08/13 13:22:51;;;;;;;2.15;1.00;;;;;;;26.80;82.66;98388.09;15295778;19;20010;-83
2022/08/13 13:28:00;;;;;;;1.40;1.00;;;;;;;26.65;85.86;98397.94;15303681;19;20038;-81
2022/08/13 13:33:05;;;;;;;1.58;1.00;;;;;;;26.46;89.20;98398.38;15319885;19;20078;-81
2022/08/13 13:38:23;;;;;;;1.73;1.15;;;;;;;26.24;93.57;98394.91;15305971;19;20019;-81
2022/08/13 13:43:30;;;;;;;4.85;1.23;;;;;;;26.15;97.72;98395.41;15286599;19;20027;-80
2022/08/13 13:48:44;;;;;;;2.67;1.40;;;;;;;26.22;97.99;98386.91;15289012;19;20003;-81
2022/08/13 13:53:49;;;;;;;3.33;1.20;;;;;;;26.48;95.65;98389.81;15290400;19;20479;-80
2022/08/13 13:59:16;;;;;;;2.63;1.00;;;;;;;26.68;85.71;98386.34;15290741;19;20072;-81
2022/08/13 14:04:40;;;;;;;1.85;1.08;;;;;;;26.76;87.52;98383.06;15296214;19;20485;-81
2022/08/13 14:10:04;;;;;;;2.17;0.93;;;;;;;26.77;86.24;98392.22;15317536;19;19995;-82
2022/08/13 14:15:15;;;;;;;3.47;0.90;;;;;;;26.65;86.07;98389.63;15328242;19;20002;-81
2022/08/13 14:20:20;;;;;;;2.20;0.82;;;;;;;26.55;88.77;98384.06;15274273;19;20372;-82
2022/08/13 14:25:46;;;;;;;2.28;1.05;;;;;;;26.51;89.86;98388.47;15276037;19;21311;-81
2022/08/13 14:31:02;;;;;;;2.47;1.10;;;;;;;26.57;89.66;98368.91;15290715;19;20897;-81
2022/08/13 14:36:10;;;;;;;1.77;0.93;;;;;;;26.65;90.04;98367.53;15300835;19;20014;-81
2022/08/13 14:41:15;;;;;;;3.90;1.08;;;;;;;26.69;89.26;98370.63;15303212;19;20006;-80
2022/08/13 14:46:24;;;;;;;0.88;0.85;;;;;;;26.65;88.61;98366.72;15302022;19;20011;-80
2022/08/13 14:51:31;;;;;;;3.00;1.10;;;;;;;26.63;88.46;98369.75;15300830;19;20025;-81
2022/08/13 14:56:55;;;;;;;4.20;1.10;;;;;;;26.49;88.37;98360.28;15304846;19;20010;-80
2022/08/13 15:02:21;;;;;;;6.70;1.20;;;;;;;26.44;90.04;98369.38;15306020;19;20019;-81
2022/08/13 15:07:26;;;;;;;1.20;1.00;;;;;;;26.38;88.67;98362.97;15304038;19;20078;-81
2022/08/13 15:12:33;;;;;;;2.28;1.00;;;;;;;26.26;89.77;98356.81;15305457;19;20006;-81
2022/08/13 15:17:43;;;;;;;6.97;1.40;;;;;;;26.12;97.95;98361.94;15302847;19;20015;-81
2022/08/13 15:22:49;;;;;;;3.78;1.10;;;;;;;25.90;99.53;98368.38;15296852;19;20006;-76
2022/08/13 15:27:55;;;;;;;3.53;1.15;;;;;;;25.68;100.00;98360.22;15306759;19;20014;-81
2022/08/13 15:33:04;;;;;;;1.25;1.00;;;;;;;25.56;100.00;98356.78;15304936;19;20027;-77
2022/08/13 15:38:12;;;;;;;6.75;1.30;;;;;;;25.47;100.00;98353.66;15296598;19;20015;-77
2022/08/13 15:43:27;;;;;;;4.03;1.20;;;;;;;25.42;100.00;98350.84;15302041;19;20014;-76
2022/08/13 15:48:48;;;;;;;2.97;1.25;;;;;;;25.45;100.00;98345.66;15311222;19;20027;-79
2022/08/13 15:53:54;;;;;;;1.80;1.30;;;;;;;25.46;100.00;98340.97;15301144;19;20018;-80
2022/08/13 15:59:01;;;;;;;3.92;1.20;;;;;;;25.58;100.00;98332.53;15297005;19;20010;-78
2022/08/13 16:04:13;;;;;;;1.35;1.10;;;;;;;25.74;100.00;98323.28;15303445;19;20685;-77
2022/08/13 16:09:19;;;;;;;4.30;1.40;;;;;;;26.18;100.00;98324.16;15286341;19;20090;-81
2022/08/13 16:14:44;;;;;;;3.95;1.10;;;;;;;26.77;98.12;98301.81;15299866;19;20045;-81
2022/08/13 16:19:58;;;;;;;1.20;1.10;;;;;;;27.30;90.45;98300.03;15297477;19;21275;-83
2022/08/13 16:25:17;;;;;;;2.13;1.10;;;;;;;27.61;88.48;98289.88;15286319;19;20010;-83
2022/08/13 16:30:24;;;;;;;2.20;1.10;;;;;;;27.80;85.98;98279.06;15295824;19;20062;-83
2022/08/13 16:35:40;;;;;;;1.98;1.10;;;;;;;28.05;82.41;98282.09;15293892;19;20018;-81
2022/08/13 16:40:51;;;;;;;3.67;1.02;;;;;;;28.20;81.46;98272.94;15298517;19;20044;-84
2022/08/13 16:45:57;;;;;;;3.63;1.20;;;;;;;28.16;80.02;98275.47;15298367;19;20014;-81
2022/08/13 16:51:04;;;;;;;4.93;1.10;;;;;;;28.18;79.65;98275.97;15298778;19;20010;-82
2022/08/13 16:56:12;;;;;;;3.43;1.10;;;;;;;28.03;80.70;98276.00;15265011;19;20558;-83
2022/08/13 17:01:22;;;;;;;1.88;1.20;;;;;;;27.82;82.32;98270.47;15299648;19;20011;-83
2022/08/13 17:11:58;;;;;;;2.65;1.20;;;;;;;27.51;84.54;98256.66;15290697;19;20043;-80
2022/08/13 17:17:03;;;;;;;1.92;1.15;;;;;;;27.69;82.27;98246.97;15288468;19;20007;-80
2022/08/13 17:22:11;;;;;;;2.90;1.13;;;;;;;27.59;82.44;98250.56;15288601;19;20106;-81
2022/08/13 17:27:16;;;;;;;2.65;1.08;;;;;;;27.64;81.79;98242.28;15280296;19;20042;-79
2022/08/13 17:32:24;;;;;;;1.30;1.00;;;;;;;27.69;81.44;98242.25;15263743;19;20015;-79
2022/08/13 17:37:35;;;;;;;2.20;1.00;;;;;;;27.89;80.70;98248.03;15269165;19;20015;-78
2022/08/13 17:42:41;;;;;;;3.88;1.00;;;;;;;28.04;79.19;98245.25;15267226;19;20014;-78
2022/08/13 17:48:08;;;;;;;1.55;0.90;;;;;;;28.03;77.28;98245.53;15267339;19;20039;-81
2022/08/13 17:53:17;;;;;;;1.75;0.98;;;;;;;27.88;76.76;98250.00;15268714;19;20027;-79
2022/08/13 17:58:24;;;;;;;2.42;0.90;;;;;;;27.71;76.23;98249.44;15268698;19;21284;-80
2022/08/13 18:03:38;;;;;;;3.97;1.00;;;;;;;27.33;75.99;98253.34;15264504;19;20018;-81
2022/08/13 18:08:54;;;;;;;1.80;0.90;;;;;;;27.02;77.52;98250.50;15284905;19;20654;-81
2022/08/13 18:13:59;;;;;;;1.90;0.88;;;;;;;26.75;79.95;98253.47;15287543;19;20023;-79
2022/08/13 18:19:10;;;;;;;3.13;1.10;;;;;;;26.35;83.60;98253.03;15284585;19;20055;-80
2022/08/13 18:24:22;;;;;;;2.83;0.97;;;;;;;26.09;86.48;98257.56;15289781;19;20931;-78
2022/08/13 18:29:35;;;;;;;1.80;1.00;;;;;;;25.71;91.77;98263.09;15334232;19;20006;-79
2022/08/13 18:35:00;;;;;;;2.38;1.10;;;;;;;25.28;98.79;98259.41;15324380;19;20814;-80
2022/08/13 18:40:10;;;;;;;1.98;1.10;;;;;;;25.03;100.00;98255.31;15249707;19;20042;-80
2022/08/13 18:45:18;;;;;;;1.77;1.30;;;;;;;24.75;100.00;98260.00;15284428;19;20022;-81
2022/08/13 18:50:43;;;;;;;1.23;1.00;;;;;;;24.50;100.00;98254.97;15298358;19;20287;-80
2022/08/13 18:55:58;;;;;;;1.42;1.00;;;;;;;24.22;100.00;98263.16;15296444;19;20021;-80
2022/08/13 19:01:04;;;;;;;3.28;1.30;;;;;;;23.99;100.00;98273.31;15306505;19;20007;-80
2022/08/13 19:06:10;;;;;;;2.38;1.20;;;;;;;23.81;100.00;98262.56;15272139;19;20070;-79
2022/08/13 19:11:18;;;;;;;1.58;1.13;;;;;;;23.61;100.00;98280.38;15310084;19;20035;-80
2022/08/13 19:16:25;;;;;;;3.47;1.20;;;;;;;23.45;100.00;98271.06;15289334;19;20037;-79
2022/08/13 19:21:33;;;;;;;3.55;1.23;;;;;;;23.31;100.00;98284.28;15303208;19;20019;-79
2022/08/13 19:27:00;;;;;;;5.13;1.45;;;;;;;23.15;100.00;98285.91;15299343;19;20006;-78
2022/08/13 19:32:06;;;;;;;1.83;1.25;;;;;;;22.93;100.00;98280.25;15304188;19;20015;-80
2022/08/13 19:37:12;;;;;;;2.08;1.20;;;;;;;22.81;100.00;98284.97;15285833;19;20010;-77
2022/08/13 19:42:24;;;;;;;2.72;1.30;;;;;;;22.71;100.00;98280.94;15313901;19;20665;-79
2022/08/13 19:47:38;;;;;;;1.95;1.10;;;;;;;22.57;100.00;98282.31;15312686;19;20014;-78
2022/08/13 19:53:07;;;;;;;1.70;1.20;;;;;;;22.47;100.00;98282.91;15303862;19;20038;-78
2022/08/13 19:58:16;;;;;;;2.30;1.30;;;;;;;22.35;100.00;98280.19;15306822;19;20514;-79
2022/08/13 20:03:24;;;;;;;2.50;1.20;;;;;;;22.26;100.00;98276.97;15306869;19;20059;-78
2022/08/13 20:08:43;;;;;;;3.25;1.45;;;;;;;22.15;100.00;98277.81;15305584;19;20074;-80
2022/08/13 20:13:50;;;;;;;2.35;1.38;;;;;;;22.10;100.00;98278.53;15308163;19;20014;-79
2022/08/13 20:19:00;;;;;;;4.38;1.40;;;;;;;21.95;100.00;98275.44;15309303;19;21483;-78
2022/08/13 20:24:07;;;;;;;3.75;1.42;;;;;;;21.83;100.00;98278.19;15308202;19;20035;-78
2022/08/13 20:29:46;;;;;;;4.03;1.23;;;;;;;21.75;100.00;98273.09;15301082;19;20420;-78
2022/08/13 20:34:55;;;;;;;3.17;1.50;;;;;;;21.62;100.00;98263.16;15304206;19;20081;-80
2022/08/13 20:40:12;;;;;;;1.98;1.45;;;;;;;21.57;100.00;98260.28;15306552;19;20082;-79
2022/08/13 20:45:25;;;;;;;1.48;1.30;;;;;;;21.54;100.00;98270.66;15297244;19;20010;-79
2022/08/13 20:56:07;;;;;;;1.52;1.42;;;;;;;21.39;100.00;98278.47;15289458;19;20392;-80
2022/08/13 21:01:16;;;;;;;1.63;1.40;;;;;;;21.32;100.00;98272.28;15293108;19;20014;-78
2022/08/13 21:06:21;;;;;;;5.22;1.40;;;;;;;21.24;100.00;98265.22;15290656;19;20010;-80
2022/08/13 21:11:31;;;;;;;2.20;1.40;;;;;;;21.19;100.00;98268.66;15295439;19;20026;-79
2022/08/13 21:16:54;;;;;;;2.23;1.40;;;;;;;21.16;100.00;98273.78;15283930;19;20361;-79
2022/08/13 21:21:59;;;;;;;2.05;1.20;;;;;;;21.07;100.00;98276.03;15295072;19;20546;-80
2022/08/13 21:27:07;;;;;;;2.75;1.30;;;;;;;20.99;100.00;98268.97;15291975;19;20007;-79
2022/08/13 21:32:35;;;;;;;1.52;1.40;;;;;;;20.87;100.00;98259.88;15292262;19;20042;-79
2022/08/13 21:37:42;;;;;;;3.38;1.40;;;;;;;20.81;100.00;98261.63;15290063;19;20015;-80
2022/08/13 21:42:48;;;;;;;2.13;1.52;;;;;;;20.75;100.00;98255.19;15298474;19;20014;-80
2022/08/13 21:48:02;;;;;;;;;;;;;;;20.70;100.00;98254.19;15300940;19;20027;-79
2022/08/13 21:53:08;;;;;;;2.38;1.60;;;;;;;20.62;100.00;98258.06;15336787;19;19923;-78
2022/08/13 21:58:32;;;;;;;3.00;1.50;;;;;;;20.55;100.00;98252.69;15337180;19;20010;-80
2022/08/13 22:03:40;;;;;;;2.08;1.60;;;;;;;20.50;100.00;98252.56;15320802;19;20030;-80
2022/08/13 22:09:06;;;;;;;3.45;1.60;;;;;;;20.39;100.00;98253.31;15303607;19;20018;-79
2022/08/13 22:14:11;;;;;;;2.47;1.60;;;;;;;20.29;100.00;98242.91;15315371;19;20038;-79
2022/08/13 22:19:18;;;;;;;1.85;1.58;;;;;;;20.22;100.00;98242.97;15290675;19;20015;-78
2022/08/13 22:24:26;;;;;;;2.37;1.50;;;;;;;20.00;100.00;98246.19;15299587;19;20007;-78
2022/08/13 22:35:08;;;;;;;1.80;1.60;;;;;;;19.83;100.00;98232.22;15360333;19;20010;-79
2022/08/13 22:40:32;;;;;;;2.65;1.50;;;;;;;19.81;100.00;98242.56;15273008;19;20555;-78
2022/08/13 22:45:37;;;;;;;1.55;1.40;;;;;;;19.80;100.00;98240.88;15291105;19;20023;-77
2022/08/13 22:50:46;;;;;;;1.85;1.50;;;;;;;19.80;100.00;98234.59;15277147;19;20487;-77
2022/08/13 22:55:51;;;;;;;2.45;1.42;;;;;;;19.73;100.00;98239.28;15286809;19;20031;-78
2022/08/13 23:00:59;;;;;;;4.03;1.67;;;;;;;19.68;100.00;98234.47;15292384;19;20256;-78
2022/08/13 23:06:08;;;;;;;2.20;1.63;;;;;;;19.63;100.00;98240.63;15284567;19;20023;-78
2022/08/13 23:11:33;;;;;;;2.35;1.67;;;;;;;19.53;100.00;98230.19;15285736;19;20412;-78
2022/08/13 23:16:38;;;;;;;2.55;1.90;;;;;;;19.39;100.00;98237.69;15287926;19;20363;-78
2022/08/13 23:21:46;;;;;;;2.15;1.70;;;;;;;19.32;100.00;98228.72;15287905;19;20441;-78
2022/08/13 23:26:51;;;;;;;2.13;1.73;;;;;;;19.25;100.00;98225.19;15275254;19;20003;-78
2022/08/13 23:31:57;;;;;;;4.20;1.70;;;;;;;19.20;100.00;98219.56;15288248;19;20018;-77
2022/08/13 23:37:05;;;;;;;2.03;1.60;;;;;;;19.17;100.00;98220.00;15281294;19;20015;-77
2022/08/13 23:42:11;;;;;;;2.42;1.60;;;;;;;19.04;100.00;98216.31;15283348;19;20015;-77
2022/08/13 23:47:15;;;;;;;2.55;1.50;;;;;;;18.99;100.00;98202.50;15281251;19;20015;-77
2022/08/13 23:52:23;;;;;;;2.08;1.60;;;;;;;18.89;100.00;98202.13;15297214;19;20590;-80
2022/08/13 23:57:33;;;;;;;1.80;1.70;;;;;;;18.76;100.00;98197.59;15282850;19;20015;-78
